Time,TemperatureF,DewpointF,PressureIn,WindDirection,WindDirectionDegrees,WindSpeedMPH,WindSpeedGustMPH,Humidity,HourlyPrecipIn,Conditions,Clouds,dailyrainin,SoftwareType,DateUTC
2013-01-09 00:02:00,48.8,46.0,30.01,West,279,9.0,14.0,91,0.00,,,0.00,weatherlink.com 1.10,2013-01-09 08:02:00,
2013-01-09 00:17:00,49.2,47.0,30.00,NNW,347,2.0,18.0,90,0.00,,,0.00,weatherlink.com 1.10,2013-01-09 08:17:00,
2013-01-09 00:32:00,49.1,47.0,29.99,SSW,213,2.0,14.0,91,0.00,,,0.00,weatherlink.com 1.10,2013-01-09 08:32:00,
2013-01-09 00:47:00,49.1,46.0,29.98,WSW,256,7.0,13.0,90,0.00,,,0.00,weatherlink.com 1.10,2013-01-09 08:47:00,
2013-01-09 01:02:00,49.4,46.0,29.97,North,360,5.0,19.0,89,0.00,,,0.00,weatherlink.com 1.10,2013-01-09 09:02:00,
2013-01-09 01:17:00,49.5,46.0,29.97,SE,144,0.0,16.0,88,0.00,,,0.00,weatherlink.com 1.10,2013-01-09 09:17:00,
2013-01-09 01:32:00,49.3,46.0,29.97,WNW,290,10.0,17.0,89,0.00,,,0.00,weatherlink.com 1.10,2013-01-09 09:32:00,
2013-01-09 01:47:00,49.4,46.0,29.96,WSW,249,4.0,17.0,87,0.00,,,0.00,weatherlink.com 1.10,2013-01-09 09:47:00,
2013-01-09 02:02:00,49.3,46.0,29.95,East,88,3.0,9.0,87,0.00,,,0.00,weatherlink.com 1.10,2013-01-09 10:02:00,
2013-01-09 02:17:00,49.2,46.0,29.93,NE,53,3.0,20.0,87,0.00,,,0.00,weatherlink.com 1.10,2013-01-09 10:17:00,
2013-01-09 02:32:00,49.3,45.0,29.92,West,261,3.0,13.0,86,0.00,,,0.00,weatherlink.com 1.10,2013-01-09 10:32:00,
2013-01-09 02:47:00,49.2,45.0,29.91,SSE,165,5.0,12.0,86,0.00,,,0.00,weatherlink.com 1.10,2013-01-09 10:47:00,
2013-01-09 03:02:00,49.4,45.0,29.89,NW,321,4.0,18.0,86,0.00,,,0.00,weatherlink.com 1.10,2013-01-09 11:02:00,
2013-01-09 03:17:00,49.1,45.0,29.88,WNW,299,3.0,10.0,87,0.00,,,0.00,weatherlink.com 1.10,2013-01-09 11:17:00,
2013-01-09 03:32:00,48.6,46.0,29.88,ESE,105,2.0,16.0,89,0.00,,,0.00,weatherlink.com 1.10,2013-01-09 11:32:00,
2013-01-09 03:48:00,48.5,46.0,29.86,NNE,15,0.0,12.0,89,0.00,,,0.00,weatherlink.com 1.10,2013-01-09 11:48:00,
2013-01-09 04:03:00,48.1,45.0,29.84,WSW,246,2.0,15.0,90,0.00,,,0.00,weatherlink.com 1.10,2013-01-09 12:03:00,
2013-01-09 04:18:00,48.3,45.0,29.82,East,101,3.0,15.0,89,0.00,,,0.00,weatherlink.com 1.10,2013-01-09 12:18:00,
2013-01-09 04:33:00,48.0,45.0,29.84,WSW,257,2.0,12.0,90,0.00,,,0.00,weatherlink.com 1.10,2013-01-09 12:33:00,
2013-01-09 04:48:00,44.9,42.0,29.87,NNW,336,7.0,25.0,90,0.00,,,0.00,weatherlink.com 1.10,2013-01-09 12:48:00,
2013-01-09 05:03:00,42.6,41.0,29.88,NW,315,7.0,19.0,92,0.00,,,0.00,weatherlink.com 1.10,2013-01-09 13:03:00,
2013-01-09 05:18:00,42.2,40.0,29.89,NNW,342,6.0,16.0,93,0.00,,,0.00,weatherlink.com 1.10,2013-01-09 13:18:00,
2013-01-09 05:33:00,42.0,40.0,29.90,West,281,6.0,13.0,93,0.00,,,0.00,weatherlink.com 1.10,2013-01-09 13:33:00,
2013-01-09 05:48:00,41.4,39.0,29.91,NNW,332,3.0,11.0,92,0.00,,,0.00,weatherlink.com 1.10,2013-01-09 13:48:00,
2013-01-09 06:03:00,41.3,40.0,29.90,North,9,2.0,9.0,93,0.00,,,0.00,weatherlink.com 1.10,2013-01-09 14:03:00,
2013-01-09 06:18:00,40.8,39.0,29.91,NNW,336,1.0,7.0,93,0.00,,,0.00,weatherlink.com 1.10,2013-01-09 14:18:00,
2013-01-09 06:33:00,40.3,38.0,29.92,West,263,6.0,8.0,92,0.00,,,0.00,weatherlink.com 1.10,2013-01-09 14:33:00,
2013-01-09 06:48:00,40.1,38.0,29.92,WNW,300,0.0,6.0,92,0.00,,,0.00,weatherlink.com 1.10,2013-01-09 14:48:00,
2013-01-09 07:03:00,39.9,38.0,29.92,WNW,302,1.0,2.0,92,0.00,,,0.00,weatherlink.com 1.10,2013-01-09 15:03:00,
2013-01-09 07:18:00,39.7,38.0,29.93,WNW,302,0.0,0.0,93,0.00,,,0.00,weatherlink.com 1.10,2013-01-09 15:18:00,
2013-01-09 07:33:00,39.8,38.0,29.92,SSW,196,0.0,2.0,94,0.00,,,0.00,weatherlink.com 1.10,2013-01-09 15:33:00,
2013-01-09 07:48:00,39.8,38.0,29.94,South,185,2.0,3.0,94,0.00,,,0.00,weatherlink.com 1.10,2013-01-09 15:48:00,
2013-01-09 08:03:00,40.0,39.0,29.94,SSE,156,1.0,3.0,94,0.00,,,0.00,weatherlink.com 1.10,2013-01-09 16:03:00,
2013-01-09 08:18:00,41.3,40.0,29.95,NW,311,7.0,17.0,95,0.00,,,0.00,weatherlink.com 1.10,2013-01-09 16:18:00,
2013-01-09 08:33:00,41.9,41.0,29.95,WNW,296,3.0,13.0,95,0.00,,,0.00,weatherlink.com 1.10,2013-01-09 16:33:00,
2013-01-09 08:48:00,41.8,40.0,29.97,West,272,7.0,14.0,94,0.00,,,0.00,weatherlink.com 1.10,2013-01-09 16:48:00,
2013-01-09 09:18:00,41.1,39.0,29.99,NW,317,7.0,15.0,92,0.00,,,0.00,weatherlink.com 1.10,2013-01-09 17:18:00,
2013-01-09 09:33:00,41.3,39.0,29.99,West,271,2.0,8.0,91,0.00,,,0.00,weatherlink.com 1.10,2013-01-09 17:33:00,
2013-01-09 09:48:00,41.8,39.0,30.00,West,263,2.0,7.0,91,0.00,,,0.00,weatherlink.com 1.10,2013-01-09 17:48:00,
2013-01-09 10:03:00,41.9,40.0,30.01,West,271,20.0,25.0,92,0.01,,,0.01,weatherlink.com 1.10,2013-01-09 18:03:00,
2013-01-09 10:18:00,40.7,39.0,30.02,WSW,252,11.0,19.0,92,0.01,,,0.01,weatherlink.com 1.10,2013-01-09 18:18:00,
2013-01-09 10:33:00,40.7,38.0,30.02,WNW,295,3.0,12.0,91,0.01,,,0.01,weatherlink.com 1.10,2013-01-09 18:33:00,
2013-01-09 10:48:00,41.0,38.0,30.02,WNW,290,0.0,8.0,90,0.01,,,0.01,weatherlink.com 1.10,2013-01-09 18:48:00,
2013-01-09 11:03:00,41.2,39.0,30.02,West,260,3.0,6.0,92,0.00,,,0.01,weatherlink.com 1.10,2013-01-09 19:03:00,
2013-01-09 11:18:00,41.8,40.0,30.02,WNW,293,4.0,8.0,92,0.00,,,0.01,weatherlink.com 1.10,2013-01-09 19:18:00,
2013-01-09 11:33:00,42.2,40.0,30.01,WNW,292,1.0,6.0,91,0.00,,,0.01,weatherlink.com 1.10,2013-01-09 19:33:00,
2013-01-09 11:48:00,42.2,40.0,30.00,WNW,292,0.0,0.0,92,0.00,,,0.01,weatherlink.com 1.10,2013-01-09 19:48:00,
2013-01-09 12:03:00,41.2,38.0,30.02,West,273,7.0,28.0,89,0.00,,,0.01,weatherlink.com 1.10,2013-01-09 20:03:00,
2013-01-09 12:18:00,41.8,38.0,30.01,WNW,298,0.0,9.0,87,0.00,,,0.01,weatherlink.com 1.10,2013-01-09 20:18:00,
2013-01-09 12:33:00,41.9,40.0,30.01,WSW,252,0.0,4.0,91,0.00,,,0.01,weatherlink.com 1.10,2013-01-09 20:33:00,
2013-01-09 12:48:00,43.6,39.0,30.01,West,280,7.0,13.0,83,0.00,,,0.01,weatherlink.com 1.10,2013-01-09 20:48:00,
2013-01-09 13:03:00,44.3,38.0,30.01,WNW,296,6.0,15.0,78,0.00,,,0.01,weatherlink.com 1.10,2013-01-09 21:03:00,
2013-01-09 13:18:00,44.8,37.0,30.02,West,277,8.0,14.0,74,0.00,,,0.01,weatherlink.com 1.10,2013-01-09 21:18:00,
2013-01-09 13:33:00,45.0,37.0,30.02,WNW,292,7.0,14.0,73,0.00,,,0.01,weatherlink.com 1.10,2013-01-09 21:33:00,
2013-01-09 13:48:00,44.9,37.0,30.02,NW,304,6.0,13.0,75,0.00,,,0.01,weatherlink.com 1.10,2013-01-09 21:48:00,
2013-01-09 14:03:00,45.4,38.0,30.02,WNW,286,6.0,11.0,74,0.00,,,0.01,weatherlink.com 1.10,2013-01-09 22:03:00,
2013-01-09 14:18:00,44.5,37.0,30.03,WNW,288,7.0,11.0,74,0.00,,,0.01,weatherlink.com 1.10,2013-01-09 22:18:00,
2013-01-09 14:33:00,44.6,36.0,30.03,WNW,289,4.0,10.0,73,0.00,,,0.01,weatherlink.com 1.10,2013-01-09 22:33:00,
2013-01-09 14:48:00,44.5,36.0,30.03,West,276,7.0,9.0,73,0.00,,,0.01,weatherlink.com 1.10,2013-01-09 22:48:00,
2013-01-09 15:03:00,44.0,36.0,30.02,West,263,2.0,8.0,74,0.00,,,0.01,weatherlink.com 1.10,2013-01-09 23:03:00,
2013-01-09 15:18:00,43.1,37.0,30.03,WSW,257,15.0,22.0,78,0.00,,,0.01,weatherlink.com 1.10,2013-01-09 23:18:00,
2013-01-09 15:33:00,40.0,37.0,30.04,WNW,291,4.0,11.0,87,0.00,,,0.01,weatherlink.com 1.10,2013-01-09 23:33:00,
2013-01-09 15:48:00,41.7,37.0,30.04,WNW,302,0.0,11.0,83,0.00,,,0.01,weatherlink.com 1.10,2013-01-09 23:48:00,
2013-01-09 16:04:00,40.7,37.0,30.04,NW,323,0.0,0.0,86,0.00,,,0.01,weatherlink.com 1.10,2013-01-10 00:04:00,
2013-01-09 16:19:00,39.3,37.0,30.04,NW,323,0.0,0.0,90,0.00,,,0.01,weatherlink.com 1.10,2013-01-10 00:19:00,
2013-01-09 16:34:00,38.8,36.0,30.04,ENE,67,0.0,0.0,91,0.00,,,0.01,weatherlink.com 1.10,2013-01-10 00:34:00,
2013-01-09 16:49:00,38.8,37.0,30.04,SE,130,0.0,3.0,92,0.00,,,0.01,weatherlink.com 1.10,2013-01-10 00:49:00,
2013-01-09 17:04:00,40.1,38.0,30.04,West,272,5.0,9.0,93,0.00,,,0.01,weatherlink.com 1.10,2013-01-10 01:04:00,
2013-01-09 17:19:00,41.8,37.0,30.04,West,270,5.0,9.0,84,0.00,,,0.01,weatherlink.com 1.10,2013-01-10 01:19:00,
2013-01-09 17:34:00,42.2,37.0,30.04,WNW,288,4.0,10.0,82,0.00,,,0.01,weatherlink.com 1.10,2013-01-10 01:34:00,
2013-01-09 17:49:00,41.9,36.0,30.04,West,279,3.0,11.0,80,0.00,,,0.01,weatherlink.com 1.10,2013-01-10 01:49:00,
2013-01-09 18:04:00,41.1,36.0,30.05,WNW,292,0.0,3.0,83,0.00,,,0.01,weatherlink.com 1.10,2013-01-10 02:04:00,
2013-01-09 18:19:00,38.8,35.0,30.04,WNW,292,0.0,2.0,87,0.00,,,0.01,weatherlink.com 1.10,2013-01-10 02:19:00,
2013-01-09 18:34:00,37.9,35.0,30.04,WSW,240,0.0,2.0,90,0.00,,,0.01,weatherlink.com 1.10,2013-01-10 02:34:00,
2013-01-09 18:49:00,38.0,36.0,30.05,East,90,0.0,3.0,92,0.00,,,0.01,weatherlink.com 1.10,2013-01-10 02:49:00,
2013-01-09 19:04:00,38.1,36.0,30.05,East,90,1.0,2.0,92,0.00,,,0.01,weatherlink.com 1.10,2013-01-10 03:04:00,
2013-01-09 19:19:00,38.0,36.0,30.05,West,265,0.0,3.0,93,0.00,,,0.01,weatherlink.com 1.10,2013-01-10 03:19:00,
2013-01-09 19:34:00,38.6,37.0,30.05,West,272,3.0,5.0,93,0.00,,,0.01,weatherlink.com 1.10,2013-01-10 03:34:00,
2013-01-09 19:49:00,38.8,37.0,30.06,WNW,295,1.0,6.0,92,0.00,,,0.01,weatherlink.com 1.10,2013-01-10 03:49:00,
2013-01-09 20:04:00,38.3,36.0,30.05,SE,140,0.0,2.0,91,0.00,,,0.01,weatherlink.com 1.10,2013-01-10 04:04:00,
2013-01-09 20:19:00,37.8,36.0,30.06,SE,125,0.0,3.0,92,0.00,,,0.01,weatherlink.com 1.10,2013-01-10 04:19:00,
2013-01-09 20:49:00,38.2,37.0,30.06,West,261,2.0,6.0,94,0.00,,,0.01,weatherlink.com 1.10,2013-01-10 04:49:00,
2013-01-09 21:04:00,38.4,36.0,30.07,WSW,243,0.0,2.0,92,0.00,,,0.01,weatherlink.com 1.10,2013-01-10 05:04:00,
2013-01-09 21:19:00,37.9,36.0,30.07,South,186,0.0,1.0,93,0.00,,,0.01,weatherlink.com 1.10,2013-01-10 05:19:00,
2013-01-09 21:49:00,37.3,36.0,30.07,SE,137,0.0,3.0,93,0.00,,,0.01,weatherlink.com 1.10,2013-01-10 05:49:00,
2013-01-09 22:04:00,37.3,36.0,30.07,SE,136,1.0,2.0,94,0.00,,,0.01,weatherlink.com 1.10,2013-01-10 06:04:00,
2013-01-09 22:19:00,37.5,36.0,30.07,SE,136,1.0,2.0,94,0.00,,,0.01,weatherlink.com 1.10,2013-01-10 06:19:00,
2013-01-09 22:34:00,37.7,36.0,30.08,ESE,121,0.0,2.0,94,0.00,,,0.01,weatherlink.com 1.10,2013-01-10 06:34:00,
2013-01-09 22:49:00,37.8,36.0,30.08,NNE,17,0.0,3.0,94,0.00,,,0.01,weatherlink.com 1.10,2013-01-10 06:49:00,
2013-01-09 23:04:00,37.5,36.0,30.08,NNW,346,1.0,2.0,93,0.00,,,0.01,weatherlink.com 1.10,2013-01-10 07:04:00,
2013-01-09 23:19:00,37.5,36.0,30.07,NNE,31,1.0,3.0,94,0.00,,,0.01,weatherlink.com 1.10,2013-01-10 07:19:00,
2013-01-09 23:34:00,37.5,36.0,30.07,ESE,107,0.0,3.0,94,0.00,,,0.01,weatherlink.com 1.10,2013-01-10 07:34:00,
2013-01-09 23:49:00,37.5,36.0,30.08,SE,139,0.0,2.0,94,0.00,,,0.01,weatherlink.com 1.10,2013-01-10 07:49:00,